createdAt,value
2022-08-29T00:04:14.688Z,97706.41
2022-08-29T00:14:20.899Z,97698.38
2022-08-29T00:24:25.037Z,97703.38
2022-08-29T00:34:26.651Z,97700.31
2022-08-29T00:44:28.606Z,97706.00
2022-08-29T00:54:30.978Z,97706.84
2022-08-29T01:04:33.569Z,97693.38
2022-08-29T01:14:38.630Z,97702.69
2022-08-29T01:24:51.390Z,97700.34
2022-08-29T01:34:53.832Z,97709.88
2022-08-29T01:44:58.674Z,97709.19
2022-08-29T01:55:00.248Z,97704.53
2022-08-29T02:05:01.705Z,97687.81
2022-08-29T02:15:04.306Z,97690.19
2022-08-29T02:25:27.374Z,97694.38
2022-08-29T02:35:29.139Z,97688.91
2022-08-29T02:45:33.323Z,97693.06
2022-08-29T02:55:34.893Z,97691.41
2022-08-29T03:05:37.318Z,97690.09
2022-08-29T03:15:39.290Z,97697.53
2022-08-29T03:25:40.982Z,97699.19
2022-08-29T03:35:42.479Z,97705.88
2022-08-29T03:45:43.974Z,97705.72
2022-08-29T03:55:46.306Z,97714.91
2022-08-29T04:05:47.759Z,97725.75
2022-08-29T04:15:53.571Z,97737.59
2022-08-29T04:26:07.390Z,97732.91
2022-08-29T04:36:17.102Z,97738.38
2022-08-29T04:46:23.828Z,97743.84
2022-08-29T04:56:26.243Z,97762.34
2022-08-29T05:06:28.755Z,97760.59
2022-08-29T05:16:31.147Z,97773.31
2022-08-29T05:26:43.032Z,97772.81
2022-08-29T05:36:45.222Z,97774.88
2022-08-29T05:46:46.881Z,97779.06
2022-08-29T05:56:48.519Z,97792.19
2022-08-29T06:06:52.970Z,97788.44
2022-08-29T06:16:55.426Z,97798.00
2022-08-29T06:26:57.282Z,97796.94
2022-08-29T06:36:59.542Z,97803.41
2022-08-29T06:47:01.175Z,97808.75
2022-08-29T06:57:02.698Z,97790.72
2022-08-29T07:07:05.263Z,97789.25
2022-08-29T07:17:06.782Z,97780.38
2022-08-29T07:27:09.357Z,97757.13
2022-08-29T07:37:10.924Z,97758.03
2022-08-29T07:47:12.435Z,97767.50
2022-08-29T07:57:17.727Z,97767.41
2022-08-29T08:07:19.279Z,97766.94
2022-08-29T08:17:21.317Z,97776.44
2022-08-29T08:27:22.865Z,97773.06
2022-08-29T08:37:27.889Z,97779.81
2022-08-29T08:47:44.205Z,97783.38
2022-08-29T08:57:56.182Z,97774.84
2022-08-29T09:08:28.609Z,97772.72
2022-08-29T09:18:35.581Z,97768.44
2022-08-29T09:28:37.976Z,97760.81
2022-08-29T09:38:39.498Z,97751.84
2022-08-29T09:48:47.226Z,97756.72
2022-08-29T09:59:04.234Z,97744.91
2022-08-29T10:09:12.257Z,97748.31
2022-08-29T10:19:18.691Z,97741.19
2022-08-29T10:29:38.706Z,97737.81
2022-08-29T10:40:02.956Z,97738.91
2022-08-29T10:50:43.628Z,97726.91
2022-08-29T11:00:58.368Z,97729.41
2022-08-29T11:11:01.557Z,97732.06
2022-08-29T11:21:19.076Z,97729.25
2022-08-29T11:31:42.024Z,97727.34
2022-08-29T11:41:48.235Z,97725.41
2022-08-29T11:51:54.703Z,97719.75
2022-08-29T12:02:00.733Z,97721.06
2022-08-29T12:12:02.401Z,97721.34
2022-08-29T12:22:03.958Z,97729.03
2022-08-29T12:32:39.900Z,97713.38
2022-08-29T12:42:41.756Z,97695.66
2022-08-29T12:52:43.391Z,97682.06
2022-08-29T13:03:15.527Z,97672.16
2022-08-29T13:13:20.925Z,97662.75
2022-08-29T13:23:29.061Z,97649.06
2022-08-29T13:33:35.083Z,97645.28
2022-08-29T13:43:45.738Z,97635.19
2022-08-29T13:53:47.410Z,97630.47
2022-08-29T14:03:50.358Z,97636.03
2022-08-29T14:13:52.053Z,97615.97
2022-08-29T14:23:54.165Z,97610.94
2022-08-29T14:33:55.646Z,97601.66
2022-08-29T14:43:57.349Z,97599.75
2022-08-29T14:53:58.839Z,97593.56
2022-08-29T15:04:00.336Z,97594.47
2022-08-29T15:14:04.336Z,97588.75
2022-08-29T15:24:06.969Z,97583.19
2022-08-29T15:34:08.532Z,97594.94
2022-08-29T15:44:10.077Z,97580.47
2022-08-29T15:54:12.355Z,97573.41
2022-08-29T16:04:15.420Z,97578.91
2022-08-29T16:24:39.325Z,97566.09
2022-08-29T16:34:40.808Z,97567.19
2022-08-29T16:44:42.507Z,97575.41
2022-08-29T16:54:44.008Z,97568.56
2022-08-29T17:04:46.899Z,97570.25
2022-08-29T17:14:50.464Z,97576.56
2022-08-29T17:24:56.452Z,97570.25
2022-08-29T17:34:57.985Z,97573.34
2022-08-29T17:44:59.554Z,97574.34
2022-08-29T17:55:07.043Z,97584.47
2022-08-29T18:05:13.029Z,97587.22
2022-08-29T18:15:15.293Z,97598.06
2022-08-29T18:25:22.761Z,97602.94
2022-08-29T18:35:24.585Z,97617.69
2022-08-29T18:45:26.088Z,97620.47
2022-08-29T18:55:28.101Z,97638.84
2022-08-29T19:05:31.897Z,97643.25
2022-08-29T19:15:34.722Z,97650.03
2022-08-29T19:25:43.557Z,97661.38
2022-08-29T19:35:49.014Z,97669.22
2022-08-29T19:45:51.663Z,97680.47
2022-08-29T19:55:55.092Z,97685.16
2022-08-29T20:05:57.202Z,97694.72
2022-08-29T20:15:58.916Z,97697.28
2022-08-29T20:26:01.574Z,97701.00
2022-08-29T20:36:22.154Z,97699.66
2022-08-29T20:46:23.965Z,97704.22
2022-08-29T20:56:25.649Z,97699.34
2022-08-29T21:06:27.145Z,97709.13
2022-08-29T21:16:29.497Z,97705.06
2022-08-29T21:26:31.120Z,97717.75
2022-08-29T21:36:32.593Z,97719.22
2022-08-29T21:46:37.545Z,97712.81
2022-08-29T21:56:39.182Z,97720.47
2022-08-29T22:06:43.224Z,97723.34
2022-08-29T22:16:45.385Z,97722.41
2022-08-29T22:26:47.309Z,97723.81
2022-08-29T22:36:48.818Z,97726.06
2022-08-29T22:46:52.746Z,97733.00
2022-08-29T22:56:54.600Z,97724.47
2022-08-29T23:06:56.284Z,97729.63
2022-08-29T23:16:57.798Z,97727.56
2022-08-29T23:26:59.885Z,97739.09
2022-08-29T23:37:01.775Z,97731.97
2022-08-29T23:47:03.699Z,97723.13
2022-08-29T23:57:05.168Z,97723.59
